createdAt,value
2022-11-24T00:01:18.956Z,8.70
2022-11-24T00:03:51.982Z,9.00
2022-11-24T00:06:18.702Z,8.80
2022-11-24T00:08:46.622Z,9.35
2022-11-24T00:11:16.086Z,9.05
2022-11-24T00:13:46.360Z,8.95
2022-11-24T00:16:27.747Z,9.05
2022-11-24T00:18:57.102Z,10.88
2022-11-24T00:21:25.503Z,10.48
2022-11-24T00:23:53.020Z,9.88
2022-11-24T00:26:22.762Z,10.50
2022-11-24T00:28:51.783Z,9.85
2022-11-24T00:31:24.872Z,9.82
2022-11-24T00:33:53.975Z,12.55
2022-11-24T00:36:23.421Z,11.82
2022-11-24T00:38:58.636Z,12.85
2022-11-24T00:41:26.431Z,12.77
2022-11-24T00:43:54.051Z,12.77
2022-11-24T00:46:21.480Z,13.68
2022-11-24T00:48:48.629Z,13.35
2022-11-24T00:51:17.820Z,13.93
2022-11-24T00:53:47.479Z,12.30
2022-11-24T00:56:14.765Z,12.07
2022-11-24T00:58:41.798Z,12.98
2022-11-24T01:01:11.947Z,13.38
2022-11-24T01:03:39.900Z,15.23
2022-11-24T01:06:09.037Z,14.05
2022-11-24T01:08:37.972Z,13.27
2022-11-24T01:11:19.459Z,14.60
2022-11-24T01:13:48.955Z,13.82
2022-11-24T01:16:21.887Z,14.07
2022-11-24T01:18:49.604Z,13.85
2022-11-24T01:21:17.373Z,14.50
2022-11-24T01:23:44.600Z,12.90
2022-11-24T01:26:14.646Z,13.63
2022-11-24T01:28:46.566Z,14.68
2022-11-24T01:31:16.111Z,13.80
2022-11-24T01:33:43.281Z,14.73
2022-11-24T01:36:10.415Z,13.20
2022-11-24T01:38:37.457Z,14.32
2022-11-24T01:41:08.472Z,15.55
2022-11-24T01:43:35.935Z,14.90
2022-11-24T01:46:17.229Z,15.27
2022-11-24T01:48:50.575Z,14.52
2022-11-24T01:51:25.292Z,15.65
2022-11-24T01:53:57.924Z,15.48
2022-11-24T01:56:26.461Z,15.45
2022-11-24T01:58:59.078Z,14.90
2022-11-24T02:01:26.173Z,15.73
2022-11-24T02:03:53.755Z,15.18
2022-11-24T02:06:25.146Z,14.23
2022-11-24T02:09:01.069Z,16.02
2022-11-24T02:11:33.564Z,16.55
2022-11-24T02:14:01.078Z,16.40
2022-11-24T02:16:29.007Z,16.20
2022-11-24T02:18:56.398Z,17.10
2022-11-24T02:21:23.349Z,18.42
2022-11-24T02:24:05.211Z,20.27
2022-11-24T02:26:37.640Z,18.02
2022-11-24T02:29:04.702Z,18.48
2022-11-24T02:31:31.664Z,19.05
2022-11-24T02:33:58.698Z,19.75
2022-11-24T02:36:25.448Z,19.17
2022-11-24T02:38:52.463Z,19.77
2022-11-24T02:41:21.825Z,20.23
2022-11-24T02:43:54.923Z,20.13
2022-11-24T02:46:21.830Z,19.80
2022-11-24T02:48:48.961Z,18.88
2022-11-24T02:51:15.833Z,19.60
2022-11-24T02:53:42.869Z,20.23
2022-11-24T02:56:09.672Z,20.60
2022-11-24T02:58:36.958Z,21.38
2022-11-24T03:01:03.930Z,21.63
2022-11-24T03:03:31.433Z,23.08
2022-11-24T03:05:58.190Z,24.05
2022-11-24T03:08:25.194Z,24.20
2022-11-24T03:10:51.942Z,23.20
2022-11-24T03:13:18.934Z,24.17
2022-11-24T03:15:45.764Z,24.33
2022-11-24T03:18:12.830Z,26.50
2022-11-24T03:20:39.542Z,24.85
2022-11-24T03:23:06.584Z,24.08
2022-11-24T03:25:33.361Z,24.05
2022-11-24T03:28:00.437Z,25.25
2022-11-24T03:30:27.529Z,25.60
2022-11-24T03:32:54.585Z,25.40
2022-11-24T03:35:22.091Z,25.23
2022-11-24T03:37:49.316Z,22.83
2022-11-24T03:40:17.947Z,23.90
2022-11-24T03:42:45.030Z,24.15
2022-11-24T03:47:58.777Z,22.83
2022-11-24T03:50:25.494Z,23.85
2022-11-24T03:52:52.496Z,23.02
2022-11-24T03:55:19.223Z,20.60
2022-11-24T03:57:46.278Z,21.42
2022-11-24T04:00:13.365Z,22.80
2022-11-24T04:02:40.450Z,22.30
2022-11-24T04:05:07.634Z,23.05
2022-11-24T04:07:34.735Z,24.52
2022-11-24T04:10:01.633Z,23.13
2022-11-24T04:12:44.239Z,23.92
2022-11-24T04:15:12.715Z,25.05
2022-11-24T04:17:40.006Z,25.17
2022-11-24T04:20:07.742Z,24.23
2022-11-24T04:22:35.742Z,25.80
2022-11-24T04:25:03.110Z,24.92
2022-11-24T04:27:30.476Z,25.20
2022-11-24T04:29:57.252Z,25.58
2022-11-24T04:32:24.485Z,27.05
2022-11-24T04:34:51.222Z,26.17
2022-11-24T04:37:18.233Z,28.63
2022-11-24T04:39:46.294Z,24.70
2022-11-24T04:42:13.499Z,25.38
2022-11-24T04:44:40.313Z,26.60
2022-11-24T04:47:07.411Z,28.00
2022-11-24T04:49:34.147Z,27.15
2022-11-24T04:52:01.148Z,29.15
2022-11-24T04:54:27.889Z,26.58
2022-11-24T04:56:55.086Z,29.00
2022-11-24T04:59:21.823Z,27.35
2022-11-24T05:01:48.881Z,27.10
2022-11-24T05:04:16.219Z,28.52
2022-11-24T05:06:43.318Z,28.95
2022-11-24T05:09:14.573Z,25.23
2022-11-24T05:11:42.042Z,29.05
2022-11-24T05:14:08.799Z,28.15
2022-11-24T05:16:37.268Z,27.05
2022-11-24T05:19:04.116Z,25.15
2022-11-24T05:21:31.183Z,26.55
2022-11-24T05:23:58.073Z,24.98
2022-11-24T05:26:26.080Z,27.55
2022-11-24T05:28:52.959Z,26.00
2022-11-24T05:31:20.102Z,27.60
2022-11-24T05:33:47.012Z,26.02
2022-11-24T05:36:34.089Z,27.48
2022-11-24T05:39:01.230Z,25.65
2022-11-24T05:41:28.428Z,25.10
2022-11-24T05:43:55.256Z,26.33
2022-11-24T05:46:22.393Z,24.70
2022-11-24T05:48:49.502Z,26.27
2022-11-24T05:51:16.881Z,25.08
2022-11-24T05:53:43.585Z,26.30
2022-11-24T05:56:10.655Z,25.63
2022-11-24T05:58:37.441Z,24.58
2022-11-24T06:01:07.622Z,25.45
2022-11-24T06:03:34.393Z,23.98
2022-11-24T06:06:01.784Z,24.05
2022-11-24T06:08:31.255Z,25.83
2022-11-24T06:11:17.608Z,23.67
2022-11-24T06:13:45.894Z,22.60
2022-11-24T06:16:13.324Z,24.40
2022-11-24T06:18:40.346Z,24.58
2022-11-24T06:21:12.055Z,20.73
2022-11-24T06:23:39.689Z,21.67
2022-11-24T06:26:07.063Z,20.80
2022-11-24T06:28:33.853Z,21.63
2022-11-24T06:31:02.418Z,21.92
2022-11-24T06:33:33.722Z,22.02
2022-11-24T06:36:07.157Z,20.77
2022-11-24T06:38:35.572Z,19.23
2022-11-24T06:41:06.269Z,21.48
2022-11-24T06:43:34.333Z,21.52
2022-11-24T06:46:02.277Z,21.38
2022-11-24T06:48:30.102Z,20.95
2022-11-24T06:51:01.727Z,20.48
2022-11-24T06:53:37.678Z,20.48
2022-11-24T06:56:12.086Z,18.58
2022-11-24T06:58:43.014Z,17.15
2022-11-24T07:01:14.073Z,18.75
2022-11-24T07:03:40.837Z,17.02
2022-11-24T07:06:07.912Z,19.80
2022-11-24T07:08:34.715Z,20.70
2022-11-24T07:11:09.716Z,21.85
2022-11-24T07:13:36.899Z,17.17
2022-11-24T07:16:19.480Z,19.95
2022-11-24T07:18:47.890Z,19.83
2022-11-24T07:21:15.449Z,20.65
2022-11-24T07:23:42.626Z,19.98
2022-11-24T07:26:10.527Z,18.60
2022-11-24T07:28:37.824Z,19.30
2022-11-24T07:31:10.447Z,19.67
2022-11-24T07:33:37.558Z,18.50
2022-11-24T07:36:06.554Z,19.25
2022-11-24T07:38:35.266Z,18.10
2022-11-24T07:41:04.521Z,16.77
2022-11-24T07:43:32.487Z,15.60
2022-11-24T07:46:00.232Z,20.00
2022-11-24T07:48:27.448Z,21.02
2022-11-24T07:50:56.300Z,17.80
2022-11-24T07:53:23.230Z,17.90
2022-11-24T07:55:55.045Z,17.80
2022-11-24T07:58:22.765Z,18.92
2022-11-24T08:00:49.952Z,18.88
2022-11-24T08:03:16.821Z,18.42
2022-11-24T08:06:07.660Z,16.88
2022-11-24T08:08:34.386Z,19.67
2022-11-24T08:11:07.131Z,19.90
2022-11-24T08:13:35.107Z,19.92
2022-11-24T08:16:10.731Z,21.67
2022-11-24T08:18:38.681Z,17.88
2022-11-24T08:21:06.968Z,17.48
2022-11-24T08:23:34.222Z,17.98
2022-11-24T08:26:10.717Z,20.13
2022-11-24T08:28:38.292Z,17.65
2022-11-24T08:31:09.223Z,18.63
2022-11-24T08:33:36.545Z,19.08
2022-11-24T08:36:09.475Z,19.88
2022-11-24T08:38:36.748Z,20.15
2022-11-24T08:41:09.782Z,20.85
2022-11-24T08:43:37.018Z,19.52
2022-11-24T08:46:10.415Z,19.85
2022-11-24T08:48:37.568Z,20.15
2022-11-24T08:51:13.307Z,19.30
2022-11-24T08:53:40.669Z,19.55
2022-11-24T08:56:09.079Z,20.10
2022-11-24T08:58:36.864Z,19.38
2022-11-24T09:01:12.139Z,20.30
2022-11-24T09:03:42.366Z,20.73
2022-11-24T09:06:13.949Z,18.73
2022-11-24T09:08:40.842Z,19.25
2022-11-24T09:11:11.017Z,19.65
2022-11-24T09:13:38.714Z,19.70
2022-11-24T09:16:08.597Z,21.15
2022-11-24T09:18:35.394Z,19.83
2022-11-24T09:21:11.577Z,19.25
2022-11-24T09:23:39.194Z,17.40
2022-11-24T09:26:11.945Z,19.48
2022-11-24T09:28:39.046Z,20.83
2022-11-24T09:31:08.726Z,18.48
2022-11-24T09:33:36.744Z,18.83
2022-11-24T09:36:04.575Z,20.75
2022-11-24T09:38:31.862Z,17.88
2022-11-24T09:41:23.221Z,19.08
2022-11-24T09:43:55.677Z,18.38
2022-11-24T09:46:59.911Z,19.00
2022-11-24T09:49:47.309Z,18.15
2022-11-24T09:52:26.791Z,18.02
2022-11-24T09:55:00.891Z,17.58
2022-11-24T09:57:36.950Z,16.70
2022-11-24T10:00:12.416Z,17.50
2022-11-24T10:02:39.999Z,17.73
2022-11-24T10:05:07.332Z,18.83
2022-11-24T10:08:02.636Z,16.95
2022-11-24T10:10:42.516Z,16.85
2022-11-24T10:13:35.249Z,17.80
2022-11-24T10:16:21.915Z,19.05
2022-11-24T10:19:22.108Z,18.10
2022-11-24T10:22:01.186Z,18.40
2022-11-24T10:25:08.367Z,18.73
2022-11-24T10:27:44.145Z,16.58
2022-11-24T10:30:21.644Z,16.75
2022-11-24T10:32:53.041Z,19.73
2022-11-24T10:35:24.448Z,17.67
2022-11-24T10:38:00.626Z,19.02
2022-11-24T10:40:56.416Z,20.20
2022-11-24T10:43:27.071Z,17.45
2022-11-24T10:45:59.715Z,20.02
2022-11-24T10:48:31.145Z,18.02
2022-11-24T10:51:17.212Z,17.20
2022-11-24T10:53:46.108Z,16.90
2022-11-24T10:56:13.226Z,17.27
2022-11-24T10:58:40.108Z,16.95
2022-11-24T11:01:12.902Z,15.82
2022-11-24T11:03:50.741Z,17.08
2022-11-24T11:06:28.711Z,14.65
2022-11-24T11:09:24.626Z,19.20
2022-11-24T11:11:53.794Z,16.58
2022-11-24T11:14:32.983Z,14.75
2022-11-24T11:17:00.125Z,16.05
2022-11-24T11:19:54.157Z,15.88
2022-11-24T11:22:31.140Z,16.45
2022-11-24T11:25:04.030Z,14.13
2022-11-24T11:27:31.090Z,15.27
2022-11-24T11:36:16.254Z,13.60
2022-11-24T11:38:45.048Z,16.90
2022-11-24T11:41:21.694Z,15.68
2022-11-24T11:43:56.453Z,14.15
2022-11-24T11:46:28.934Z,16.42
2022-11-24T11:48:56.050Z,14.27
2022-11-24T11:51:57.895Z,14.20
2022-11-24T11:54:57.187Z,13.85
2022-11-24T11:57:44.145Z,12.73
2022-11-24T12:00:24.340Z,13.48
2022-11-24T12:03:03.703Z,13.18
2022-11-24T12:05:33.911Z,12.05
2022-11-24T12:08:25.964Z,11.63
2022-11-24T12:11:22.051Z,11.98
2022-11-24T12:13:48.758Z,11.95
2022-11-24T12:16:25.148Z,12.23
2022-11-24T12:19:18.564Z,13.38
2022-11-24T12:22:02.249Z,14.20
2022-11-24T12:24:55.199Z,12.80
2022-11-24T12:27:32.452Z,12.07
2022-11-24T12:30:06.001Z,12.15
2022-11-24T12:35:30.157Z,11.05
2022-11-24T12:38:21.990Z,10.10
2022-11-24T12:41:43.258Z,11.93
2022-11-24T12:44:48.848Z,11.63
2022-11-24T12:47:22.106Z,11.73
2022-11-24T12:50:07.309Z,11.45
2022-11-24T12:52:39.856Z,11.27
2022-11-24T12:55:16.747Z,9.98
2022-11-24T12:57:52.502Z,12.43
2022-11-24T13:00:29.404Z,13.52
2022-11-24T13:03:17.788Z,9.48
2022-11-24T13:06:03.136Z,10.25
2022-11-24T13:08:31.147Z,9.88
2022-11-24T13:11:21.185Z,10.25
2022-11-24T13:14:05.679Z,11.13
2022-11-24T13:16:37.088Z,11.95
2022-11-24T13:19:33.727Z,9.90
2022-11-24T13:22:06.592Z,11.43
2022-11-24T13:24:39.279Z,9.55
2022-11-24T13:27:15.913Z,9.93
2022-11-24T13:29:47.023Z,10.15
2022-11-24T13:32:14.637Z,11.65
2022-11-24T13:34:42.765Z,10.63
2022-11-24T13:37:40.096Z,11.20
2022-11-24T13:40:13.399Z,9.75
2022-11-24T13:45:41.058Z,8.88
2022-11-24T13:48:20.976Z,11.75
2022-11-24T13:50:51.448Z,9.57
2022-11-24T13:53:40.195Z,9.82
2022-11-24T13:56:12.990Z,10.35
2022-11-24T13:58:40.026Z,11.85
2022-11-24T14:01:24.933Z,10.60
2022-11-24T14:07:00.094Z,9.38
2022-11-24T14:09:32.457Z,8.50
2022-11-24T14:12:01.728Z,10.13
2022-11-24T14:14:29.076Z,9.20
2022-11-24T14:17:14.213Z,10.20
2022-11-24T14:19:42.789Z,9.60
2022-11-24T14:22:16.948Z,10.10
2022-11-24T14:24:56.502Z,10.45
2022-11-24T14:27:32.522Z,9.73
2022-11-24T14:30:20.856Z,10.45
2022-11-24T14:33:02.101Z,10.25
2022-11-24T14:35:31.922Z,10.77
2022-11-24T14:38:01.730Z,11.50
2022-11-24T14:40:42.373Z,12.30
2022-11-24T14:43:24.750Z,11.65
2022-11-24T14:46:09.349Z,10.88
2022-11-24T14:48:38.723Z,11.95
2022-11-24T14:51:11.325Z,11.57
2022-11-24T14:53:43.176Z,11.98
2022-11-24T14:56:35.422Z,10.75
2022-11-24T14:59:03.053Z,12.93
2022-11-24T15:01:34.029Z,11.18
2022-11-24T15:04:38.904Z,10.65
2022-11-24T15:07:20.525Z,10.90
2022-11-24T15:09:47.281Z,12.23
2022-11-24T15:12:48.115Z,11.23
2022-11-24T15:15:15.079Z,11.50
2022-11-24T15:17:52.258Z,10.07
2022-11-24T15:20:44.547Z,11.55
2022-11-24T15:23:20.825Z,11.52
2022-11-24T15:25:48.276Z,12.23
2022-11-24T15:28:15.497Z,12.25
2022-11-24T15:30:42.425Z,11.93
2022-11-24T15:33:17.632Z,11.57
2022-11-24T15:35:45.480Z,11.98
2022-11-24T15:38:13.118Z,12.00
2022-11-24T15:40:42.122Z,11.45
2022-11-24T15:43:19.590Z,14.35
2022-11-24T15:45:46.539Z,11.48
2022-11-24T15:48:17.992Z,11.90
2022-11-24T15:50:47.161Z,12.77
2022-11-24T15:53:23.293Z,12.85
2022-11-24T15:55:50.593Z,12.63
2022-11-24T15:58:17.890Z,11.50
2022-11-24T16:00:45.755Z,12.82
2022-11-24T16:03:45.055Z,12.43
2022-11-24T16:05:59.876Z,12.07
2022-11-24T16:08:26.988Z,11.55
2022-11-24T16:10:53.820Z,12.15
2022-11-24T16:13:20.843Z,13.00
2022-11-24T16:15:47.639Z,12.95
2022-11-24T16:18:14.830Z,11.05
2022-11-24T16:20:41.614Z,12.20
2022-11-24T16:23:11.210Z,11.98
2022-11-24T16:25:38.169Z,11.65
2022-11-24T16:28:05.273Z,12.48
2022-11-24T16:30:32.098Z,12.20
2022-11-24T16:32:59.143Z,13.45
2022-11-24T16:35:25.952Z,12.02
2022-11-24T16:37:53.113Z,13.98
2022-11-24T16:40:20.151Z,12.60
2022-11-24T16:42:47.243Z,12.15
2022-11-24T16:45:14.122Z,10.98
2022-11-24T16:47:42.145Z,12.07
2022-11-24T16:50:10.844Z,12.68
2022-11-24T16:52:38.764Z,13.52
2022-11-24T16:55:06.669Z,11.38
2022-11-24T16:57:33.998Z,13.45
2022-11-24T17:00:00.920Z,12.02
2022-11-24T17:02:28.247Z,12.43
2022-11-24T17:04:55.255Z,11.55
2022-11-24T17:07:22.491Z,12.15
2022-11-24T17:09:49.422Z,12.60
2022-11-24T17:12:16.411Z,10.93
2022-11-24T17:14:52.651Z,11.85
2022-11-24T17:17:30.312Z,12.32
2022-11-24T17:19:57.084Z,11.40
2022-11-24T17:22:24.198Z,10.93
2022-11-24T17:24:51.007Z,12.52
2022-11-24T17:27:18.059Z,12.43
2022-11-24T17:29:44.927Z,11.57
2022-11-24T17:32:12.295Z,13.43
2022-11-24T17:34:39.188Z,13.43
2022-11-24T17:37:06.230Z,11.65
2022-11-24T17:39:33.121Z,12.00
2022-11-24T17:42:00.329Z,10.35
2022-11-24T17:44:27.578Z,11.63
2022-11-24T17:46:54.649Z,13.25
2022-11-24T17:49:21.545Z,11.77
2022-11-24T17:51:50.574Z,11.60
2022-11-24T17:54:45.273Z,11.32
2022-11-24T17:57:05.269Z,11.05
2022-11-24T17:59:32.057Z,12.13
2022-11-24T18:01:59.233Z,10.55
2022-11-24T18:04:26.037Z,11.07
2022-11-24T18:06:53.117Z,11.57
2022-11-24T18:09:19.943Z,12.27
2022-11-24T18:11:47.856Z,10.70
2022-11-24T18:14:14.766Z,11.90
2022-11-24T18:16:42.005Z,10.23
2022-11-24T18:19:11.035Z,11.23
2022-11-24T18:21:40.354Z,11.60
2022-11-24T18:24:11.732Z,12.50
2022-11-24T18:26:40.233Z,12.32
2022-11-24T18:29:07.974Z,10.75
2022-11-24T18:31:36.198Z,12.30
2022-11-24T18:34:05.233Z,11.32
2022-11-24T18:36:33.142Z,12.65
2022-11-24T18:39:08.239Z,11.40
2022-11-24T18:41:36.093Z,11.85
2022-11-24T18:44:07.648Z,11.23
2022-11-24T18:46:34.981Z,12.10
2022-11-24T18:49:01.770Z,11.05
2022-11-24T18:51:29.157Z,12.20
2022-11-24T18:53:59.307Z,12.30
2022-11-24T18:56:26.666Z,13.18
2022-11-24T18:58:55.471Z,12.90
2022-11-24T19:01:26.081Z,10.88
2022-11-24T19:03:55.804Z,11.80
2022-11-24T19:06:34.547Z,14.18
2022-11-24T19:09:08.937Z,11.85
2022-11-24T19:11:38.938Z,12.98
2022-11-24T19:14:08.427Z,12.73
2022-11-24T19:16:36.051Z,13.23
2022-11-24T19:19:03.940Z,12.75
2022-11-24T19:21:33.635Z,12.45
2022-11-24T19:24:04.970Z,14.60
2022-11-24T19:26:35.218Z,13.02
2022-11-24T19:29:03.121Z,12.60
2022-11-24T19:31:34.443Z,13.65
2022-11-24T19:34:05.861Z,13.52
2022-11-24T19:36:32.995Z,13.95
2022-11-24T19:38:59.909Z,13.57
2022-11-24T19:41:29.314Z,14.73
2022-11-24T19:43:56.743Z,13.88
2022-11-24T19:46:29.318Z,14.20
2022-11-24T19:48:59.977Z,12.85
2022-11-24T19:51:32.340Z,13.40
2022-11-24T19:54:00.245Z,13.57
2022-11-24T19:56:30.447Z,13.93
2022-11-24T19:58:57.845Z,13.20
2022-11-24T20:01:30.487Z,13.57
2022-11-24T20:04:02.584Z,13.63
2022-11-24T20:06:32.783Z,12.85
2022-11-24T20:09:00.709Z,15.85
2022-11-24T20:11:28.583Z,13.27
2022-11-24T20:13:56.583Z,14.65
2022-11-24T20:16:26.753Z,13.98
2022-11-24T20:18:56.278Z,12.32
2022-11-24T20:21:31.538Z,12.48
2022-11-24T20:24:01.241Z,15.48
2022-11-24T20:26:31.866Z,13.82
2022-11-24T20:28:59.614Z,14.95
2022-11-24T20:31:32.233Z,14.25
2022-11-24T20:34:00.960Z,12.77
2022-11-24T20:36:30.293Z,15.10
2022-11-24T20:38:59.834Z,14.15
2022-11-24T20:41:29.265Z,13.75
2022-11-24T20:43:58.095Z,14.48
2022-11-24T20:46:30.494Z,16.00
2022-11-24T20:48:58.182Z,14.43
2022-11-24T20:51:30.966Z,11.82
2022-11-24T20:54:00.327Z,13.70
2022-11-24T20:56:30.028Z,14.82
2022-11-24T20:58:57.269Z,14.95
2022-11-24T21:01:28.140Z,12.35
2022-11-24T21:03:57.768Z,16.63
2022-11-24T21:06:26.294Z,14.30
2022-11-24T21:08:53.198Z,12.73
2022-11-24T21:11:21.879Z,13.85
2022-11-24T21:13:49.797Z,14.25
2022-11-24T21:16:46.157Z,13.32
2022-11-24T21:19:14.855Z,15.25
2022-11-24T21:21:42.932Z,14.15
2022-11-24T21:24:12.822Z,14.90
2022-11-24T21:26:41.169Z,13.75
2022-11-24T21:29:08.559Z,15.85
2022-11-24T21:31:37.426Z,15.07
2022-11-24T21:34:05.417Z,14.10
2022-11-24T21:36:34.803Z,15.02
2022-11-24T21:39:03.107Z,15.00
2022-11-24T21:41:33.204Z,12.95
2022-11-24T21:44:00.467Z,13.65
2022-11-24T21:46:29.245Z,14.70
2022-11-24T21:48:56.048Z,13.68
2022-11-24T21:51:23.108Z,11.30
2022-11-24T21:53:49.884Z,13.70
2022-11-24T21:56:19.446Z,13.40
2022-11-24T21:58:50.522Z,13.90
2022-11-24T22:01:19.392Z,14.13
2022-11-24T22:03:46.401Z,15.95
2022-11-24T22:06:14.199Z,14.65
2022-11-24T22:08:41.109Z,14.10
2022-11-24T22:11:23.315Z,14.27
2022-11-24T22:13:51.175Z,15.10
2022-11-24T22:16:23.052Z,14.07
2022-11-24T22:18:51.669Z,14.70
2022-11-24T22:21:24.327Z,15.20
2022-11-24T22:23:54.885Z,14.40
2022-11-24T22:26:23.919Z,15.63
2022-11-24T22:28:50.917Z,14.32
2022-11-24T22:31:23.941Z,15.35
2022-11-24T22:33:51.991Z,15.32
2022-11-24T22:36:23.121Z,15.65
2022-11-24T22:38:58.270Z,14.27
2022-11-24T22:41:25.831Z,13.63
2022-11-24T22:43:53.887Z,13.85
2022-11-24T22:46:26.674Z,14.20
2022-11-24T22:48:54.929Z,14.25
2022-11-24T22:51:26.458Z,14.05
2022-11-24T22:53:58.650Z,14.55
2022-11-24T22:56:27.921Z,13.30
2022-11-24T22:58:54.711Z,13.27
2022-11-24T23:01:24.316Z,14.48
2022-11-24T23:03:56.058Z,15.35
2022-11-24T23:06:25.436Z,13.57
2022-11-24T23:08:52.830Z,12.82
2022-11-24T23:11:27.397Z,13.30
2022-11-24T23:14:00.455Z,12.90
2022-11-24T23:16:28.979Z,14.57
2022-11-24T23:18:56.511Z,14.45
2022-11-24T23:21:35.109Z,12.70
2022-11-24T23:24:04.190Z,12.77
2022-11-24T23:26:37.137Z,14.02
2022-11-24T23:29:05.318Z,13.50
2022-11-24T23:31:33.229Z,11.98
2022-11-24T23:34:02.496Z,14.50
2022-11-24T23:36:30.367Z,13.38
2022-11-24T23:39:02.095Z,13.27
2022-11-24T23:41:30.364Z,13.38
2022-11-24T23:43:57.236Z,12.02
2022-11-24T23:46:25.847Z,14.38
2022-11-24T23:48:53.696Z,13.35
2022-11-24T23:51:24.116Z,15.15
2022-11-24T23:53:51.639Z,13.05
2022-11-24T23:56:21.563Z,13.70
2022-11-24T23:58:49.032Z,14.55
